Time;durP1;ratioP1;P1;durP2;ratioP2;P2;SDS_P1;SDS_P2;PMS_P1;PMS_P2;Temp;Humidity;BMP_temperature;BMP_pressure;BME280_temperature;BME280_humidity;BME280_pressure;Samples;Min_cycle;Max_cycle;Signal;HPM_P1;HPM_P2
2022/04/17 00:00:28;;;;;;;4.25;2.40;;;14.20;65.00;;;;;;5020153;28;20474;-78
2022/04/17 00:02:54;;;;;;;3.53;2.35;;;14.10;65.60;;;;;;4997825;28;20098;-78
2022/04/17 00:05:20;;;;;;;3.85;2.60;;;14.10;65.00;;;;;;5013909;28;20037;-79
2022/04/17 00:07:47;;;;;;;2.88;2.25;;;14.10;65.00;;;;;;5031228;28;20079;-77
2022/04/17 00:10:13;;;;;;;2.65;2.40;;;14.00;65.00;;;;;;4998472;28;20770;-78
2022/04/17 00:12:41;;;;;;;3.90;2.50;;;14.00;64.90;;;;;;4997648;28;20077;-78
2022/04/17 00:15:10;;;;;;;3.08;2.20;;;14.00;65.00;;;;;;5059967;28;20076;-79
2022/04/17 00:17:41;;;;;;;3.28;2.30;;;14.00;65.00;;;;;;5037973;28;20029;-79
2022/04/17 00:20:12;;;;;;;4.20;2.30;;;13.90;65.00;;;;;;5041294;28;20024;-80
2022/04/17 00:22:39;;;;;;;2.67;2.35;;;13.90;65.00;;;;;;5043961;28;20121;-79
2022/04/17 00:25:07;;;;;;;2.92;2.30;;;13.80;65.00;;;;;;5069425;28;20040;-79
2022/04/17 00:27:33;;;;;;;3.72;2.67;;;13.80;65.10;;;;;;5028153;28;20442;-79
2022/04/17 00:29:59;;;;;;;3.88;2.58;;;13.70;65.00;;;;;;5041759;28;20033;-79
2022/04/17 00:32:25;;;;;;;3.55;2.50;;;13.70;65.00;;;;;;5041019;28;20044;-79
2022/04/17 00:34:51;;;;;;;3.75;2.67;;;13.70;65.00;;;;;;5039252;28;20089;-79
2022/04/17 00:37:17;;;;;;;4.28;2.58;;;13.60;65.00;;;;;;5023550;28;20026;-79
2022/04/17 00:39:42;;;;;;;3.72;2.67;;;13.60;65.60;;;;;;5033704;28;20785;-79
2022/04/17 00:42:09;;;;;;;4.10;2.60;;;13.50;64.80;;;;;;5031000;28;20040;-79
2022/04/17 00:44:39;;;;;;;3.10;2.33;;;13.50;65.50;;;;;;5037771;28;20056;-79
2022/04/17 00:47:05;;;;;;;4.00;2.75;;;13.50;65.00;;;;;;5032720;28;20036;-79
2022/04/17 00:49:31;;;;;;;4.25;2.78;;;13.40;64.80;;;;;;5049714;28;20033;-79
2022/04/17 00:51:58;;;;;;;3.55;2.70;;;13.40;64.90;;;;;;5058697;28;20044;-80
2022/04/17 00:54:25;;;;;;;4.28;2.60;;;13.40;64.90;;;;;;5036281;28;20037;-81
2022/04/17 00:56:51;;;;;;;4.18;2.70;;;13.30;64.80;;;;;;5034822;28;20035;-79
2022/04/17 00:59:17;;;;;;;4.05;2.63;;;13.30;64.80;;;;;;5029989;28;20041;-79
2022/04/17 01:01:43;;;;;;;3.63;2.78;;;13.20;64.80;;;;;;5022864;28;20045;-79
2022/04/17 01:04:12;;;;;;;3.33;2.78;;;13.20;64.80;;;;;;5033322;28;20055;-79
2022/04/17 01:06:41;;;;;;;3.67;2.75;;;13.20;64.90;;;;;;5066830;28;20033;-80
2022/04/17 01:09:07;;;;;;;4.03;2.90;;;13.10;64.80;;;;;;5039896;28;20044;-79
2022/04/17 01:11:35;;;;;;;4.22;2.75;;;13.10;64.80;;;;;;5035970;28;20083;-79
2022/04/17 01:14:03;;;;;;;4.18;2.83;;;13.10;64.90;;;;;;5034122;28;20391;-80
2022/04/17 01:16:29;;;;;;;3.88;2.55;;;13.00;64.80;;;;;;5017649;28;20061;-79
2022/04/17 01:19:02;;;;;;;3.70;2.50;;;13.00;64.90;;;;;;5038461;28;20048;-79
2022/04/17 01:21:31;;;;;;;3.90;2.60;;;13.00;64.90;;;;;;5020427;28;20121;-79
2022/04/17 01:26:57;;;;;;;3.60;2.67;;;12.90;64.90;;;;;;5029509;28;20087;-80
2022/04/17 01:29:28;;;;;;;4.28;2.80;;;12.90;65.00;;;;;;5030091;28;20403;-79
2022/04/17 01:31:55;;;;;;;3.67;2.63;;;12.80;64.90;;;;;;5029414;28;20056;-80
2022/04/17 01:34:22;;;;;;;3.42;2.38;;;12.80;65.00;;;;;;5012957;28;20048;-79
2022/04/17 01:36:49;;;;;;;3.45;2.67;;;12.70;64.90;;;;;;5023058;28;20455;-79
2022/04/17 01:39:15;;;;;;;3.47;2.53;;;12.70;64.90;;;;;;5014361;28;20036;-79
2022/04/17 01:41:42;;;;;;;3.60;2.40;;;12.70;65.00;;;;;;5031026;28;20032;-80
2022/04/17 01:44:08;;;;;;;3.90;2.60;;;12.60;64.90;;;;;;5012424;28;20037;-78
2022/04/17 01:46:34;;;;;;;3.85;2.63;;;12.60;64.90;;;;;;5030916;28;20030;-79
2022/04/17 01:49:01;;;;;;;3.97;2.40;;;12.60;65.60;;;;;;5025772;28;20022;-80
2022/04/17 01:51:26;;;;;;;3.58;2.67;;;12.50;64.90;;;;;;5047766;28;20132;-79
2022/04/17 01:53:52;;;;;;;3.08;2.33;;;12.50;64.90;;;;;;5012775;28;20040;-79
2022/04/17 01:56:18;;;;;;;3.80;2.60;;;12.50;64.80;;;;;;5010290;28;20068;-80
2022/04/17 01:58:44;;;;;;;4.30;2.85;;;12.40;64.80;;;;;;5015951;28;20509;-79
2022/04/17 02:01:10;;;;;;;4.05;3.08;;;12.40;64.80;;;;;;5021369;28;20137;-80
2022/04/17 02:03:37;;;;;;;4.30;2.85;;;12.40;64.90;;;;;;5040643;28;20033;-79
2022/04/17 02:06:02;;;;;;;3.55;2.55;;;12.30;64.80;;;;;;5013839;28;20076;-79
2022/04/17 02:08:28;;;;;;;3.13;2.50;;;12.30;64.80;;;;;;5039051;28;20022;-80
2022/04/17 02:10:57;;;;;;;4.03;2.90;;;12.30;64.80;;;;;;5030398;28;20485;-80
2022/04/17 02:13:24;;;;;;;3.65;2.80;;;12.20;64.70;;;;;;5028181;28;20389;-80
2022/04/17 02:15:53;;;;;;;5.38;2.75;;;12.20;64.70;;;;;;5043328;28;20056;-79
2022/04/17 02:18:25;;;;;;;4.03;2.80;;;12.20;64.70;;;;;;5047377;28;20574;-81
2022/04/17 02:20:52;;;;;;;4.40;3.00;;;12.20;64.80;;;;;;5029973;28;20504;-79
2022/04/17 02:23:18;;;;;;;3.65;2.80;;;12.10;64.80;;;;;;5069691;28;20519;-79
2022/04/17 02:25:43;;;;;;;4.15;3.00;;;12.10;64.70;;;;;;5047830;28;20165;-80
2022/04/17 02:28:09;;;;;;;3.53;2.65;;;12.10;64.80;;;;;;5044768;28;20033;-80
2022/04/17 02:30:36;;;;;;;4.88;3.13;;;12.00;64.70;;;;;;5064044;28;20029;-79
2022/04/17 02:33:02;;;;;;;4.32;3.05;;;12.00;64.70;;;;;;5091185;28;20036;-79
2022/04/17 02:35:29;;;;;;;4.20;2.78;;;11.90;64.60;;;;;;5061590;28;20024;-79
2022/04/17 02:37:55;;;;;;;3.85;2.97;;;11.90;64.60;;;;;;5038173;28;20025;-79
2022/04/17 02:40:21;;;;;;;4.25;3.00;;;11.90;64.70;;;;;;5040048;28;20025;-80
2022/04/17 02:42:47;;;;;;;4.93;3.08;;;11.80;64.60;;;;;;5057165;28;20038;-80
2022/04/17 02:45:13;;;;;;;3.95;2.90;;;11.80;64.60;;;;;;5056336;28;20053;-80
2022/04/17 02:47:42;;;;;;;4.28;3.20;;;11.80;64.60;;;;;;5072341;28;20519;-81
2022/04/17 02:50:09;;;;;;;4.05;2.78;;;11.80;64.70;;;;;;5081553;28;20024;-79
2022/04/17 02:52:35;;;;;;;4.25;3.08;;;11.70;64.60;;;;;;5055827;28;20107;-80
2022/04/17 02:55:01;;;;;;;4.68;3.05;;;11.70;64.70;;;;;;5036356;28;20132;-79
2022/04/17 02:57:28;;;;;;;4.43;3.22;;;11.60;64.60;;;;;;5072826;28;20418;-80
2022/04/17 02:59:54;;;;;;;3.38;2.80;;;11.60;64.60;;;;;;5039471;28;20101;-80
2022/04/17 03:07:49;;;;;;;3.97;3.03;;;11.50;64.60;;;;;;5072267;28;20097;-80
2022/04/17 03:10:15;;;;;;;4.47;3.00;;;11.50;64.70;;;;;;5047661;28;20039;-79
2022/04/17 03:12:41;;;;;;;5.15;3.58;;;11.40;64.60;;;;;;5059576;28;20090;-79
2022/04/17 03:15:07;;;;;;;3.70;2.95;;;11.40;64.70;;;;;;5058217;28;20068;-79
2022/04/17 03:17:34;;;;;;;3.65;2.90;;;11.40;64.70;;;;;;5039492;28;20028;-79
2022/04/17 03:20:00;;;;;;;4.38;3.22;;;11.40;64.70;;;;;;5043054;28;20036;-80
2022/04/17 03:22:25;;;;;;;4.43;3.08;;;11.30;64.70;;;;;;5055641;28;20135;-80
2022/04/17 03:24:51;;;;;;;5.35;3.58;;;11.30;64.70;;;;;;5028547;28;20033;-79
2022/04/17 03:27:18;;;;;;;5.15;3.33;;;11.30;65.00;;;;;;5039163;28;20033;-80
2022/04/17 03:29:44;;;;;;;5.25;3.65;;;11.20;64.70;;;;;;5076475;28;20048;-79
2022/04/17 03:32:09;;;;;;;5.32;3.65;;;11.20;64.70;;;;;;5047986;28;20072;-79
2022/04/17 03:34:35;;;;;;;4.35;3.40;;;11.20;64.70;;;;;;5059289;28;20025;-80
2022/04/17 03:37:01;;;;;;;4.20;3.22;;;11.20;64.70;;;;;;5042717;28;20060;-79
2022/04/17 03:39:27;;;;;;;5.22;3.65;;;11.20;64.80;;;;;;5040981;28;20116;-80
2022/04/17 03:41:53;;;;;;;5.90;3.67;;;11.10;64.70;;;;;;5039068;28;20098;-80
2022/04/17 03:44:20;;;;;;;5.18;3.90;;;11.10;64.80;;;;;;5039718;28;20028;-79
2022/04/17 03:46:47;;;;;;;5.60;3.70;;;11.00;64.70;;;;;;5037930;28;20089;-79
2022/04/17 03:49:14;;;;;;;4.40;3.40;;;11.00;64.80;;;;;;5022304;28;20024;-79
2022/04/17 03:51:39;;;;;;;4.97;3.67;;;11.00;65.40;;;;;;5040653;28;20082;-79
2022/04/17 03:54:05;;;;;;;4.47;3.08;;;11.00;64.80;;;;;;5034445;28;20067;-80
2022/04/17 03:56:31;;;;;;;4.57;3.38;;;10.90;64.80;;;;;;5057922;28;20493;-81
2022/04/17 03:58:57;;;;;;;5.30;3.42;;;10.90;64.80;;;;;;5048668;28;20043;-80
2022/04/17 04:01:23;;;;;;;4.88;3.72;;;10.90;64.80;;;;;;5037637;28;20033;-80
2022/04/17 04:03:49;;;;;;;4.95;3.60;;;10.90;64.80;;;;;;5049160;28;20029;-79
2022/04/17 04:06:16;;;;;;;5.75;3.35;;;10.80;65.50;;;;;;5049690;28;20039;-78
2022/04/17 04:08:42;;;;;;;4.72;3.53;;;10.80;64.90;;;;;;5018233;28;20035;-79
2022/04/17 04:11:08;;;;;;;4.30;3.38;;;10.80;64.90;;;;;;5057700;28;21364;-79
2022/04/17 04:13:34;;;;;;;5.40;3.90;;;10.80;64.90;;;;;;5053798;28;20047;-79
2022/04/17 04:16:00;;;;;;;4.93;3.40;;;10.70;64.90;;;;;;5035863;28;20466;-78
2022/04/17 04:18:25;;;;;;;5.50;3.72;;;10.70;64.90;;;;;;5056788;28;20037;-80
2022/04/17 04:20:52;;;;;;;4.88;3.45;;;10.70;64.90;;;;;;5072290;28;20029;-80
2022/04/17 04:23:20;;;;;;;5.55;3.70;;;10.60;64.90;;;;;;5061919;28;20029;-78
2022/04/17 04:25:46;;;;;;;5.30;3.75;;;10.60;65.00;;;;;;5036065;28;20021;-79
2022/04/17 04:30:56;;;;;;;6.60;3.47;;;10.50;64.90;;;;;;5070323;28;20519;-78
2022/04/17 04:33:22;;;;;;;5.43;4.00;;;10.50;64.90;;;;;;5039037;28;20033;-79
2022/04/17 04:35:48;;;;;;;5.00;3.78;;;10.50;65.00;;;;;;5040372;28;20388;-78
2022/04/17 04:38:14;;;;;;;5.68;3.85;;;10.50;65.00;;;;;;5054463;28;20453;-79
2022/04/17 04:40:40;;;;;;;5.15;3.63;;;10.50;65.10;;;;;;5041648;28;20016;-79
2022/04/17 04:43:06;;;;;;;6.68;4.20;;;10.50;65.10;;;;;;5031224;28;20025;-79
2022/04/17 04:49:29;;;;;;;4.90;3.45;;;10.40;65.10;;;;;;5071782;28;20101;-79
2022/04/17 04:51:01;;;;;;;5.15;3.63;;;10.40;65.10;;;;;;5053902;28;20078;-77
2022/04/17 04:53:28;;;;;;;5.30;3.95;;;10.40;65.10;;;;;;5033932;28;20040;-79
2022/04/17 04:55:54;;;;;;;5.47;3.80;;;10.30;65.10;;;;;;5060601;28;20021;-79
2022/04/17 04:58:20;;;;;;;5.15;3.92;;;10.30;65.10;;;;;;5021640;28;20119;-79
2022/04/17 05:00:46;;;;;;;5.25;3.83;;;10.30;65.40;;;;;;5025948;28;20112;-81
2022/04/17 05:03:12;;;;;;;4.97;3.78;;;10.30;65.20;;;;;;5036656;28;20055;-78
2022/04/17 05:05:38;;;;;;;4.97;3.60;;;10.20;65.10;;;;;;5031662;28;20396;-80
2022/04/17 05:08:04;;;;;;;4.88;3.78;;;10.20;65.20;;;;;;5020508;28;20481;-79
2022/04/17 05:10:30;;;;;;;4.78;3.63;;;10.20;65.20;;;;;;5037141;28;20052;-79
2022/04/17 05:12:55;;;;;;;5.05;3.75;;;10.20;65.20;;;;;;5050379;28;20067;-78
2022/04/17 05:15:22;;;;;;;5.50;3.92;;;10.10;65.20;;;;;;5024168;28;20414;-76
2022/04/17 05:17:48;;;;;;;5.15;3.92;;;10.10;65.20;;;;;;5036104;28;20123;-77
2022/04/17 05:20:17;;;;;;;5.80;4.10;;;10.10;65.30;;;;;;5052965;28;20100;-77
2022/04/17 05:22:44;;;;;;;4.93;3.50;;;10.10;65.30;;;;;;5054565;28;20031;-77
2022/04/17 05:25:10;;;;;;;5.35;3.92;;;10.10;65.30;;;;;;5055548;28;20123;-77
2022/04/17 05:27:35;;;;;;;5.78;4.10;;;10.10;65.40;;;;;;5033484;28;20482;-77
2022/04/17 05:30:02;;;;;;;4.72;3.38;;;10.00;65.30;;;;;;5036817;28;20033;-78
2022/04/17 05:32:28;;;;;;;5.60;3.70;;;10.00;65.40;;;;;;5053324;28;20099;-76
2022/04/17 05:34:53;;;;;;;4.80;3.50;;;10.00;65.40;;;;;;5052407;28;20059;-78
2022/04/17 05:37:19;;;;;;;6.00;3.50;;;10.00;65.50;;;;;;5036041;28;20480;-78
2022/04/17 05:39:45;;;;;;;5.22;3.88;;;9.90;65.40;;;;;;5071345;28;20090;-78
2022/04/17 05:42:12;;;;;;;5.60;4.15;;;9.90;65.50;;;;;;5052448;28;20048;-78
2022/04/17 05:44:38;;;;;;;4.95;3.80;;;9.90;65.50;;;;;;5053247;28;20025;-78
2022/04/17 05:47:04;;;;;;;5.32;3.97;;;9.90;65.50;;;;;;5034023;28;20025;-78
2022/04/17 05:49:30;;;;;;;5.15;3.70;;;9.90;66.20;;;;;;5048898;28;20029;-77
2022/04/17 05:51:57;;;;;;;5.47;3.85;;;9.90;66.20;;;;;;5050805;28;20071;-77
2022/04/17 05:54:24;;;;;;;5.30;4.07;;;9.90;65.60;;;;;;5071447;28;20020;-75
2022/04/17 05:56:49;;;;;;;6.68;3.75;;;9.90;65.60;;;;;;5052629;28;20476;-77
2022/04/17 05:59:15;;;;;;;5.53;3.88;;;9.90;66.30;;;;;;5054976;28;20025;-77
2022/04/17 06:01:41;;;;;;;6.25;3.95;;;9.90;65.70;;;;;;5039486;28;20033;-78
2022/04/17 06:04:06;;;;;;;6.07;4.43;;;9.80;65.60;;;;;;5031813;28;20020;-77
2022/04/17 06:06:32;;;;;;;5.10;3.72;;;9.80;65.70;;;;;;5050380;28;20040;-78
2022/04/17 06:08:58;;;;;;;5.85;4.05;;;9.80;65.70;;;;;;5056180;28;20036;-78
2022/04/17 06:11:24;;;;;;;5.60;4.30;;;9.80;65.80;;;;;;5043385;28;20028;-79
2022/04/17 06:13:50;;;;;;;5.78;4.05;;;9.80;65.80;;;;;;5053087;28;20419;-78
2022/04/17 06:16:16;;;;;;;5.72;3.85;;;9.80;65.80;;;;;;5038564;28;20406;-80
2022/04/17 06:18:41;;;;;;;5.10;3.60;;;9.80;65.80;;;;;;5056633;28;20043;-77
2022/04/17 06:21:07;;;;;;;5.35;3.70;;;9.80;65.80;;;;;;5056241;28;20028;-76
2022/04/17 06:23:33;;;;;;;5.65;4.18;;;9.80;65.80;;;;;;5037181;28;20032;-77
2022/04/17 06:26:00;;;;;;;5.53;4.07;;;9.80;65.90;;;;;;5035061;28;20032;-77
2022/04/17 06:28:26;;;;;;;5.15;3.75;;;9.70;65.90;;;;;;5053888;28;20028;-77
2022/04/17 06:30:52;;;;;;;5.93;3.95;;;9.70;65.80;;;;;;5071390;28;20027;-77
2022/04/17 06:33:18;;;;;;;4.68;3.72;;;9.80;65.90;;;;;;5041490;28;20047;-78
2022/04/17 06:35:43;;;;;;;5.90;3.88;;;9.70;65.90;;;;;;5038482;28;20440;-76
2022/04/17 06:38:10;;;;;;;4.93;3.65;;;9.80;66.00;;;;;;5053991;28;20047;-75
2022/04/17 06:40:37;;;;;;;5.80;4.15;;;9.70;66.00;;;;;;5035982;28;20025;-77
2022/04/17 06:43:08;;;;;;;5.50;3.97;;;9.70;66.00;;;;;;5050843;28;20462;-78
2022/04/17 06:45:36;;;;;;;5.28;4.07;;;9.70;66.00;;;;;;5059873;28;20104;-78
2022/04/17 06:48:15;;;;;;;6.32;3.90;;;9.70;66.00;;;;;;5054826;28;20408;-77
2022/04/17 06:50:45;;;;;;;5.53;3.95;;;9.70;66.10;;;;;;5037587;28;20035;-78
2022/04/17 06:53:11;;;;;;;5.13;3.67;;;9.70;66.10;;;;;;5038409;28;20547;-77
2022/04/17 06:55:41;;;;;;;4.85;3.70;;;9.70;66.20;;;;;;5051311;28;20156;-78
2022/04/17 06:58:10;;;;;;;5.05;3.67;;;9.70;66.10;;;;;;5054911;28;20025;-77
2022/04/17 07:00:37;;;;;;;5.88;3.80;;;9.80;66.20;;;;;;5045297;28;20139;-77
2022/04/17 07:03:03;;;;;;;5.03;3.78;;;9.70;66.20;;;;;;5070497;28;20032;-78
2022/04/17 07:05:29;;;;;;;5.15;3.63;;;9.80;66.20;;;;;;5017914;28;20029;-77
2022/04/17 07:08:05;;;;;;;4.97;3.42;;;9.80;66.20;;;;;;5053818;28;20423;-77
2022/04/17 07:10:37;;;;;;;5.78;4.20;;;9.80;66.30;;;;;;5073563;28;20038;-74
2022/04/17 07:13:04;;;;;;;5.70;3.75;;;9.80;66.30;;;;;;5059396;28;20465;-78
2022/04/17 07:15:30;;;;;;;4.68;3.65;;;9.80;66.20;;;;;;5051337;28;20131;-79
2022/04/17 07:17:56;;;;;;;5.53;4.05;;;9.80;66.20;;;;;;5061401;28;20592;-78
2022/04/17 07:20:22;;;;;;;6.22;4.05;;;9.80;66.30;;;;;;5037363;28;20431;-78
2022/04/17 07:22:49;;;;;;;5.32;3.63;;;9.80;66.30;;;;;;5070651;28;20048;-77
2022/04/17 07:25:15;;;;;;;6.50;4.43;;;9.80;66.30;;;;;;5061515;28;20035;-79
2022/04/17 07:27:48;;;;;;;4.78;3.42;;;9.90;66.40;;;;;;5058390;28;20113;-77
2022/04/17 07:30:26;;;;;;;5.55;3.65;;;9.90;66.30;;;;;;5054093;28;20025;-78
2022/04/17 07:32:57;;;;;;;4.95;3.53;;;9.90;66.40;;;;;;5053389;28;20051;-78
2022/04/17 07:35:24;;;;;;;5.65;4.00;;;9.90;66.30;;;;;;5029221;28;20025;-78
2022/04/17 07:37:51;;;;;;;5.35;3.92;;;9.90;66.30;;;;;;5048156;28;20024;-81
2022/04/17 07:40:19;;;;;;;4.95;3.70;;;9.90;66.40;;;;;;5053031;28;20173;-79
2022/04/17 07:42:46;;;;;;;5.07;3.70;;;9.90;66.30;;;;;;5036513;28;20711;-79
2022/04/17 07:45:13;;;;;;;4.60;3.33;;;9.90;66.30;;;;;;5056305;28;20052;-78
2022/04/17 07:47:40;;;;;;;5.55;3.70;;;10.00;66.40;;;;;;5069587;28;20031;-79
2022/04/17 07:50:07;;;;;;;4.97;3.63;;;9.90;66.30;;;;;;5067628;28;20492;-77
2022/04/17 07:52:36;;;;;;;5.40;3.97;;;10.00;66.40;;;;;;5054074;28;20043;-77
2022/04/17 07:55:04;;;;;;;4.75;3.38;;;10.00;66.40;;;;;;5035977;28;20550;-78
2022/04/17 07:57:53;;;;;;;4.50;3.28;;;10.00;66.40;;;;;;5053106;28;20029;-77
2022/04/17 08:00:19;;;;;;;4.35;3.20;;;10.00;66.30;;;;;;5085426;28;20100;-79
2022/04/17 08:02:52;;;;;;;4.97;3.67;;;10.00;66.30;;;;;;5050974;28;20151;-77
2022/04/17 08:05:18;;;;;;;5.00;3.60;;;10.10;66.40;;;;;;5051082;28;20167;-78
2022/04/17 08:07:44;;;;;;;4.70;3.60;;;10.10;66.40;;;;;;5036486;28;20061;-78
2022/04/17 08:10:10;;;;;;;3.78;2.95;;;10.10;66.40;;;;;;5064682;28;20455;-76
2022/04/17 08:12:35;;;;;;;4.57;3.58;;;10.10;66.40;;;;;;5052682;28;20029;-76
2022/04/17 08:15:01;;;;;;;4.65;3.40;;;10.20;66.40;;;;;;5054412;28;20080;-76
2022/04/17 08:17:27;;;;;;;4.32;3.17;;;10.20;66.40;;;;;;5052339;28;20362;-78
2022/04/17 08:19:53;;;;;;;4.55;3.45;;;10.20;66.40;;;;;;5047464;28;20082;-78
2022/04/17 08:22:21;;;;;;;3.97;3.13;;;10.30;66.50;;;;;;5053184;28;20023;-78
2022/04/17 08:24:47;;;;;;;4.28;3.20;;;10.30;66.50;;;;;;5042380;28;20052;-77
2022/04/17 08:27:12;;;;;;;4.25;3.25;;;10.30;66.40;;;;;;5059153;28;20731;-78
2022/04/17 08:29:38;;;;;;;4.32;3.35;;;10.30;66.40;;;;;;5050704;28;20113;-77
2022/04/17 08:32:04;;;;;;;4.03;3.38;;;10.40;66.40;;;;;;5035902;28;20044;-78
2022/04/17 08:34:30;;;;;;;3.42;3.03;;;10.40;66.30;;;;;;5044520;28;20032;-79
2022/04/17 08:36:56;;;;;;;4.38;3.35;;;10.50;66.40;;;;;;5041701;28;20078;-77
2022/04/17 08:39:21;;;;;;;4.03;3.15;;;10.50;66.30;;;;;;5030219;28;20037;-76
2022/04/17 08:41:48;;;;;;;4.50;3.30;;;10.60;66.40;;;;;;5045497;28;20032;-77
2022/04/17 08:44:14;;;;;;;3.70;2.97;;;10.60;66.30;;;;;;5063541;28;20482;-77
2022/04/17 08:46:41;;;;;;;4.13;2.85;;;10.70;66.30;;;;;;5034864;28;20039;-76
2022/04/17 08:49:09;;;;;;;4.35;3.47;;;10.70;66.30;;;;;;5054041;28;20029;-75
2022/04/17 08:51:37;;;;;;;4.53;3.38;;;10.80;66.30;;;;;;5046799;28;20465;-75
2022/04/17 08:54:04;;;;;;;4.20;3.22;;;10.90;66.30;;;;;;5051888;28;20033;-76
2022/04/17 08:56:30;;;;;;;4.63;3.47;;;11.00;66.30;;;;;;5036181;28;20025;-75
2022/04/17 08:58:56;;;;;;;4.00;3.17;;;11.10;66.20;;;;;;5032472;28;20537;-75
2022/04/17 09:01:21;;;;;;;3.85;3.03;;;11.10;66.20;;;;;;5037769;28;20037;-76
2022/04/17 09:03:47;;;;;;;4.32;3.03;;;11.20;66.20;;;;;;5033527;28;20031;-76
2022/04/17 09:06:22;;;;;;;4.00;2.90;;;11.30;66.10;;;;;;5031216;28;20032;-75
2022/04/17 09:09:04;;;;;;;4.55;3.38;;;11.40;66.10;;;;;;5046582;28;20013;-75
2022/04/17 09:11:32;;;;;;;3.90;2.85;;;11.40;66.10;;;;;;5027781;28;20072;-77
2022/04/17 09:14:03;;;;;;;5.22;3.42;;;11.50;66.00;;;;;;5036244;28;20024;-76
2022/04/17 09:16:35;;;;;;;3.67;3.10;;;11.60;66.00;;;;;;5047395;28;20044;-76
2022/04/17 09:19:12;;;;;;;4.40;2.95;;;11.70;66.00;;;;;;5053305;28;20024;-76
2022/04/17 09:21:38;;;;;;;2.92;2.42;;;11.80;66.00;;;;;;5049260;28;20111;-75
2022/04/17 09:24:15;;;;;;;4.53;3.30;;;11.90;65.90;;;;;;5035222;28;20116;-78
2022/04/17 09:26:55;;;;;;;4.10;2.88;;;12.00;65.90;;;;;;5062161;28;20124;-75
2022/04/17 09:29:27;;;;;;;3.70;2.80;;;12.10;65.80;;;;;;5035463;28;20378;-77
2022/04/17 09:32:03;;;;;;;2.78;2.30;;;12.20;65.70;;;;;;5049063;28;20028;-76
2022/04/17 09:34:41;;;;;;;2.97;2.60;;;12.30;65.80;;;;;;5066947;28;20457;-76
2022/04/17 09:37:13;;;;;;;3.58;2.80;;;12.40;65.80;;;;;;5067909;28;20119;-76
2022/04/17 09:39:40;;;;;;;3.22;2.60;;;12.50;65.70;;;;;;5052303;28;20025;-76
2022/04/17 09:42:07;;;;;;;2.83;2.35;;;12.60;66.30;;;;;;5049047;28;20484;-75
2022/04/17 09:44:46;;;;;;;3.60;2.67;;;12.70;65.60;;;;;;5066535;28;20024;-76
2022/04/17 09:47:20;;;;;;;3.55;2.60;;;12.80;65.60;;;;;;5037822;28;20036;-75
2022/04/17 09:49:56;;;;;;;4.00;2.60;;;12.90;65.50;;;;;;5052209;28;20472;-75
2022/04/17 09:52:23;;;;;;;3.15;2.38;;;13.00;65.60;;;;;;5034725;28;20481;-76
2022/04/17 09:54:50;;;;;;;3.47;2.60;;;13.20;65.50;;;;;;5046944;28;20135;-76
2022/04/17 09:57:25;;;;;;;4.15;2.83;;;13.20;65.40;;;;;;5052109;28;20036;-76
2022/04/17 09:59:51;;;;;;;3.30;2.42;;;13.40;65.50;;;;;;5035624;28;20081;-77
2022/04/17 10:02:19;;;;;;;3.45;2.40;;;13.50;65.40;;;;;;5052792;28;20025;-76
2022/04/17 10:04:45;;;;;;;3.50;2.42;;;13.60;65.40;;;;;;5049814;28;20035;-75
2022/04/17 10:07:11;;;;;;;3.58;2.45;;;13.70;65.40;;;;;;5033878;28;20033;-75
2022/04/17 10:09:38;;;;;;;2.95;2.45;;;13.80;65.30;;;;;;5070205;28;20067;-75
2022/04/17 10:12:05;;;;;;;2.92;2.50;;;13.90;65.40;;;;;;5076230;28;20056;-73
2022/04/17 10:14:32;;;;;;;2.72;2.42;;;14.00;65.40;;;;;;5059966;28;20560;-73
2022/04/17 10:16:58;;;;;;;3.08;2.35;;;14.20;65.60;;;;;;5031437;28;20048;-73
2022/04/17 10:19:25;;;;;;;2.92;2.40;;;14.30;65.60;;;;;;5080251;28;20036;-75
2022/04/17 10:21:51;;;;;;;3.00;2.38;;;14.40;65.50;;;;;;5054330;28;20028;-74
2022/04/17 10:24:19;;;;;;;4.40;2.47;;;14.50;65.40;;;;;;5047811;28;20033;-76
2022/04/17 10:26:49;;;;;;;3.33;2.60;;;14.60;65.40;;;;;;5064723;28;20029;-74
2022/04/17 10:29:18;;;;;;;3.70;2.60;;;14.70;65.30;;;;;;5034685;28;20060;-75
2022/04/17 10:31:59;;;;;;;2.92;2.33;;;14.80;65.30;;;;;;5055320;28;20120;-75
2022/04/17 10:34:53;;;;;;;3.38;2.40;;;14.90;65.30;;;;;;5062698;28;20035;-74
2022/04/17 10:38:00;;;;;;;2.50;2.30;;;15.10;65.30;;;;;;5046765;28;20039;-74
2022/04/17 10:40:27;;;;;;;3.38;2.30;;;15.20;65.10;;;;;;4988903;28;20084;-77
2022/04/17 10:43:03;;;;;;;3.25;2.40;;;15.30;65.00;;;;;;4989560;28;20026;-77
2022/04/17 10:45:32;;;;;;;3.28;2.40;;;15.40;64.10;;;;;;5041696;28;20099;-79
2022/04/17 10:48:09;;;;;;;2.97;2.47;;;15.50;63.20;;;;;;5047018;28;20650;-82
2022/04/17 10:50:51;;;;;;;3.90;2.65;;;15.60;62.50;;;;;;5055175;28;20030;-79
2022/04/17 10:53:28;;;;;;;3.30;2.50;;;15.70;61.50;;;;;;5055556;28;20029;-79
2022/04/17 10:56:05;;;;;;;3.22;2.40;;;15.80;60.60;;;;;;5056174;28;20028;-78
2022/04/17 10:58:40;;;;;;;2.92;2.25;;;15.90;60.10;;;;;;5055341;28;20059;-78
2022/04/17 11:01:08;;;;;;;3.28;2.38;;;16.00;59.50;;;;;;5038732;28;20038;-78
2022/04/17 11:03:35;;;;;;;3.10;2.30;;;16.10;59.20;;;;;;5046300;28;20040;-77
2022/04/17 11:06:30;;;;;;;2.63;2.25;;;16.20;58.80;;;;;;5039192;28;20021;-77
2022/04/17 11:09:08;;;;;;;2.20;2.00;;;16.30;58.20;;;;;;5039580;28;20439;-77
2022/04/17 11:11:39;;;;;;;2.72;2.20;;;16.40;57.90;;;;;;5074003;28;20036;-77
2022/04/17 11:14:23;;;;;;;3.35;2.45;;;16.50;57.40;;;;;;5073690;28;20067;-79
2022/04/17 11:16:57;;;;;;;4.05;2.45;;;16.60;57.10;;;;;;5047711;28;20044;-77
2022/04/17 11:19:32;;;;;;;2.85;2.10;;;16.70;57.00;;;;;;5070582;28;20059;-78
2022/04/17 11:22:04;;;;;;;2.97;2.30;;;16.80;56.70;;;;;;5047049;28;20028;-78
2022/04/17 11:24:55;;;;;;;2.60;2.10;;;16.90;56.20;;;;;;5055150;28;20028;-79
2022/04/17 11:27:52;;;;;;;3.20;2.30;;;17.00;56.00;;;;;;5042932;28;20036;-77
2022/04/17 11:30:17;;;;;;;3.65;2.50;;;17.00;55.80;;;;;;5070357;28;20028;-80
2022/04/17 11:32:43;;;;;;;3.08;2.20;;;17.10;55.70;;;;;;5073533;28;20036;-76
2022/04/17 11:35:14;;;;;;;3.38;2.50;;;17.20;55.40;;;;;;5054927;28;20062;-78
2022/04/17 11:37:48;;;;;;;3.33;2.40;;;17.20;54.80;;;;;;5056025;28;20036;-81
2022/04/17 11:40:15;;;;;;;2.97;2.08;;;17.30;54.40;;;;;;5037525;28;20094;-79
2022/04/17 11:42:48;;;;;;;3.65;2.10;;;17.40;54.20;;;;;;5034546;28;20036;-79
2022/04/17 11:45:16;;;;;;;3.00;2.05;;;17.40;53.90;;;;;;5045684;28;20051;-78
2022/04/17 11:47:44;;;;;;;2.33;1.98;;;17.50;53.90;;;;;;5070669;28;20025;-76
2022/04/17 11:50:11;;;;;;;3.20;2.08;;;17.50;53.40;;;;;;5056183;28;20024;-78
2022/04/17 11:52:38;;;;;;;2.80;1.95;;;17.60;53.30;;;;;;5077460;28;20028;-83
2022/04/17 11:55:07;;;;;;;3.03;1.90;;;17.70;53.00;;;;;;5054294;28;20473;-80
2022/04/17 11:57:33;;;;;;;2.92;1.95;;;17.70;52.70;;;;;;5061401;28;20024;-77
2022/04/17 12:00:00;;;;;;;2.80;2.05;;;17.80;52.80;;;;;;5038724;28;20029;-82
2022/04/17 12:02:28;;;;;;;2.40;2.00;;;17.80;52.40;;;;;;5054513;28;20040;-79
2022/04/17 12:04:56;;;;;;;2.47;1.83;;;17.90;52.40;;;;;;5036294;28;20537;-80
2022/04/17 12:07:24;;;;;;;3.40;2.08;;;17.90;52.10;;;;;;5037796;28;20060;-79
2022/04/17 12:10:02;;;;;;;2.83;2.00;;;17.90;51.90;;;;;;5076786;28;20032;-79
2022/04/17 12:12:33;;;;;;;2.47;1.90;;;17.90;51.80;;;;;;5071605;28;20485;-80
2022/04/17 12:15:03;;;;;;;3.47;2.10;;;18.00;51.60;;;;;;5035598;28;20044;-82
2022/04/17 12:17:31;;;;;;;2.55;1.95;;;18.00;51.50;;;;;;5050416;28;20036;-82
2022/04/17 12:19:57;;;;;;;3.72;2.25;;;18.00;51.30;;;;;;5085290;28;20082;-84
2022/04/17 12:22:24;;;;;;;3.33;1.98;;;18.10;51.20;;;;;;5031057;28;20071;-78
2022/04/17 12:24:51;;;;;;;3.55;2.30;;;18.10;51.20;;;;;;5042776;28;20021;-82
2022/04/17 12:27:20;;;;;;;3.70;2.17;;;18.20;51.10;;;;;;5053959;28;20063;-81
2022/04/17 12:29:51;;;;;;;2.65;2.03;;;18.20;51.10;;;;;;5072099;28;20024;-79
2022/04/17 12:32:21;;;;;;;3.17;1.88;;;18.20;51.10;;;;;;5062593;28;20025;-84
2022/04/17 12:35:00;;;;;;;3.58;2.20;;;18.30;51.20;;;;;;5071496;28;20473;-82
2022/04/17 12:37:45;;;;;;;3.20;2.08;;;18.40;51.20;;;;;;5053430;28;20035;-79
2022/04/17 12:40:18;;;;;;;3.47;2.15;;;18.40;51.10;;;;;;5070360;28;20082;-79
2022/04/17 12:42:44;;;;;;;2.83;2.10;;;18.40;51.00;;;;;;5071468;28;20039;-80
2022/04/17 12:45:21;;;;;;;3.30;2.30;;;18.50;51.20;;;;;;5037836;28;20082;-81
2022/04/17 12:48:00;;;;;;;3.45;2.08;;;18.50;51.00;;;;;;5067716;28;20114;-79
2022/04/17 12:50:26;;;;;;;3.65;2.28;;;18.50;51.00;;;;;;5035931;28;20024;-79
2022/04/17 12:52:56;;;;;;;3.05;2.13;;;18.60;51.00;;;;;;5054943;28;20067;-77
2022/04/17 12:55:35;;;;;;;2.75;2.25;;;18.60;50.70;;;;;;5081285;28;20028;-78
2022/04/17 12:58:02;;;;;;;4.93;2.10;;;18.60;50.60;;;;;;5043994;28;20023;-79
2022/04/17 13:00:29;;;;;;;3.80;2.40;;;18.70;50.70;;;;;;5054876;28;20487;-81
2022/04/17 13:03:12;;;;;;;3.28;2.58;;;18.70;50.80;;;;;;5035584;28;20028;-80
2022/04/17 13:05:38;;;;;;;3.03;2.25;;;18.80;50.70;;;;;;5033104;28;20047;-82
2022/04/17 13:08:05;;;;;;;4.68;2.40;;;18.80;50.80;;;;;;5037857;28;20040;-82